Panama City, Florida
Current Conditions -  °F | °C
As of 11:58 AM on Monday 26 Jan 2015 (Local Time) from KPAM Reporting Station
Clear Clear  
Wind Chill: 56°   Ceiling: Unl
Heat Index: 56°   Visibility: 10mi
Dew Point: 40°   Wind: 15mph
Humidity: 54%   Direction: 310°NW
Pressure: 29.97"   Gusts: NA
Location:  30.16°N, 85.66°W
Report Text: KPAM 261758Z AUTO 31013KT 10SM CLR 14/05 A2997 RMK AO2 SLP152 T01360045 10136 20096 58006 $
Loading
Personal Weather Stations






























Interactive Weather Map New forecast layout! Learn more

10-Day Weather Forecast

Advertisements
Track Severe Weather on mobile